NCAR-RAP Real-Time Weather Data

Output produced by METARs form (17 October 2018  15:35 UTC)
found at http://weather.rap.ucar.edu/surface/
 
RJAF 170700Z 33008KT 9999 FEW025 SCT060 BKN100 14/08 Q1012
RJAF 170600Z 33007KT 9999 FEW020 SCT060 BKN090 15/07 Q1012
RJAF 170500Z 35008KT 9999 FEW020 SCT050 BKN090 15/07 Q1012
RJAF 170400Z 35005KT 300V010 9999 FEW025 SCT040 BKN090 15/08 Q1012
RJAF 170300Z 35010KT 310V020 9999 FEW025 SCT050 BKN090 15/08 Q1012
RJAF 170200Z 34012KT 9999 FEW025 SCT050 BKN090 15/09 Q1013
RJAF 170100Z 36012KT 320V030 9999 FEW020 SCT050 BKN090 15/08 Q1013
RJAF 170000Z 35005KT 310V020 9999 FEW006 SCT020 BKN040 13/10 Q1013
RJAF 162330Z VRB02KT 9999 FEW006 SCT020 BKN040 12/09 Q1013
RJAF 162310Z 35003KT 8000 FEW006 SCT020 BKN030 11/09 Q1013 RMK 1ST006 3CU020 5SC030 A2991
RJAF 160700Z 35003KT 310V010 9999 FEW035 SCT050 BKN/// 16/08 Q1012
RJAF 160600Z 35003KT 310V020 9999 FEW040 BKN/// 17/07 Q1013
RJAF 160500Z VRB01KT 9999 FEW035 BKN/// 17/07 Q1013
RJAF 160400Z 29003KT 170V340 9999 FEW035 BKN/// 16/09 Q1013
RJAF 160300Z VRB02KT 9999 FEW025 BKN/// 15/08 Q1014
RJAF 160200Z VRB02KT 9999 FEW025 SCT190 OVC/// 14/08 Q1015
RJAF 160100Z VRB02KT 9999 FEW010 OVC/// 14/09 Q1016
RJAF 160000Z VRB01KT 9999 FEW005 BKN/// 12/09 Q1017
RJAF 152330Z VRB02KT 9999 FEW002 BKN/// 11/08 Q1017
RJAF 152310Z 00000KT 9999 FEW001 BKN/// 11/08 Q1017 RMK 1ST001 A3006
RJAF 150700Z 14008KT 110V170 9999 FEW025 BKN090 BKN/// 15/10 Q1017
RJAF 150600Z 15010KT 9999 FEW030 SCT100 BKN140 16/10 Q1017
RJAF 150500Z 15013KT 9999 FEW030 BKN100 BKN110 15/09 Q1017
RJAF 150400Z 14011KT 9999 FEW025 SCT060 BKN110 16/09 Q1017